Hlavní strana
METAR-TAF:

METAR-TAF

Letiště :

Sallisaw, Oklahoma, Spojené státy americké

zeměpisná šířka: 35-26-17N, zeměpisná délka: 094-48-10W, výška: 161 m

Aktuální stav počasí

Zpráva byla vytvořena před 21 minutami, v 00:55 UTC
Severní vítr 7 kt
Teplota 3°C
Vlhkost vzduchu 65%
Tlak 1038 hPa
Viditelnost: 16.1 km
Jasno

METAR: KJSV 210055Z AUTO 01007KT 10SM CLR 03/M03 A3066 RMK AO2

Čas: 19:16 (01:16 UTC)


TAF: chybějící

Stav a předpovědi počasí z více než 4 000 letišť (zprávy METAR a TAF).

Červené a žluté tečky na mapě představují dostupné meteorologické stanice.

Když kurzor umístíte na tečku, zobrazí se název stanice.

Pak kliknutím zobrazíte stav a předpověď počasí.

Chcete-li změnit mapu, kliknutím na zelené tlačítko se znaménkem +mapu přiblížíte, kliknutím na zelené tlačítko se znaménkem – mapu oddálíte a kliknutím na zelené šipky přejdete na sousední mapy.


METAR-TAF: